Time;durP1;ratioP1;P1;durP2;ratioP2;P2;SDS_P1;SDS_P2;PMS_P1;PMS_P2;Temp;Humidity;BMP_temperature;BMP_pressure;BME280_temperature;BME280_humidity;BME280_pressure;Samples;Min_cycle;Max_cycle;Signal;HPM_P1;HPM_P2
2022/01/25 00:15:32;;;;;;;66.10;33.63;;;4.40;99.90;;;;;;5059469;28;20102;-64
2022/01/25 00:28:44;;;;;;;62.40;32.78;;;4.20;99.90;;;;;;5058670;28;20105;-64
2022/01/25 00:31:13;;;;;;;63.03;34.10;;;4.00;99.90;;;;;;5075561;28;20169;-64
2022/01/25 00:33:41;;;;;;;62.10;33.47;;;4.10;99.90;;;;;;5076652;28;20040;-64
2022/01/25 00:36:09;;;;;;;64.90;31.30;;;4.50;99.90;;;;;;5056154;28;20111;-64
2022/01/25 00:38:35;;;;;;;57.83;31.02;;;4.30;99.90;;;;;;5055198;28;20045;-64
2022/01/25 00:41:00;;;;;;;68.20;33.88;;;4.30;99.90;;;;;;5055427;28;20123;-64
2022/01/25 00:43:27;;;;;;;63.55;34.38;;;;;;;;;;5056099;28;20454;-64
2022/01/25 00:45:57;;;;;;;63.83;32.83;;;4.40;99.90;;;;;;5055033;28;20131;-64
2022/01/25 00:53:58;;;;;;;60.83;32.13;;;4.20;99.90;;;;;;5058737;28;20044;-64
2022/01/25 00:56:29;;;;;;;64.88;32.67;;;4.30;99.90;;;;;;5057726;28;20047;-64
2022/01/25 00:58:54;;;;;;;71.70;33.65;;;4.30;99.90;;;;;;5075216;28;20045;-64
2022/01/25 01:01:21;;;;;;;63.33;33.63;;;4.20;99.90;;;;;;5058894;28;20410;-64
2022/01/25 01:03:47;;;;;;;62.00;32.97;;;4.20;99.90;;;;;;5074379;28;20115;-64
2022/01/25 01:06:14;;;;;;;65.70;34.35;;;4.20;99.90;;;;;;5074612;28;20102;-64
2022/01/25 01:08:40;;;;;;;58.50;31.17;;;4.10;99.90;;;;;;5076132;28;20494;-64
2022/01/25 01:11:10;;;;;;;63.47;31.48;;;;;;;;;;5075179;28;20048;-64
2022/01/25 01:31:55;;;;;;;62.10;33.13;;;4.30;99.90;;;;;;5057844;28;20383;-64
2022/01/25 01:37:30;;;;;;;63.88;32.38;;;4.30;99.90;;;;;;5058611;28;20502;-64
2022/01/25 01:45:36;;;;;;;64.35;33.10;;;4.30;99.90;;;;;;5023331;28;20057;-65
2022/01/25 01:48:06;;;;;;;66.53;34.35;;;4.10;99.90;;;;;;5059272;28;20044;-64
2022/01/25 01:50:34;;;;;;;64.78;31.52;;;4.20;99.90;;;;;;5075754;28;20505;-64
2022/01/25 01:53:02;;;;;;;65.38;33.67;;;4.30;99.90;;;;;;5074726;28;20040;-64
2022/01/25 01:55:28;;;;;;;66.32;34.58;;;4.20;99.90;;;;;;5057586;28;20048;-64
2022/01/25 01:57:55;;;;;;;64.78;32.58;;;4.40;99.90;;;;;;5075376;28;20486;-65
2022/01/25 02:00:25;;;;;;;60.63;31.92;;;4.20;99.90;;;;;;5058614;28;20045;-64
2022/01/25 02:02:50;;;;;;;63.97;32.83;;;4.10;99.90;;;;;;5075271;28;20036;-64
2022/01/25 02:05:16;;;;;;;69.70;34.38;;;4.20;99.90;;;;;;5075777;28;20086;-64
2022/01/25 02:07:41;;;;;;;60.08;32.38;;;4.10;99.90;;;;;;5057836;28;20229;-64
2022/01/25 02:10:08;;;;;;;63.35;34.40;;;4.30;99.90;;;;;;5075782;28;20059;-64
2022/01/25 02:12:34;;;;;;;62.85;33.65;;;4.10;99.90;;;;;;5074331;28;20483;-64
2022/01/25 02:15:02;;;;;;;61.63;30.55;;;4.00;99.90;;;;;;5057663;28;20037;-64
2022/01/25 02:23:23;;;;;;;64.13;31.85;;;4.30;99.90;;;;;;5056881;28;20072;-64
2022/01/25 02:25:56;;;;;;;64.30;33.33;;;4.00;99.90;;;;;;5076159;28;20048;-63
2022/01/25 02:28:26;;;;;;;68.40;32.67;;;4.20;99.90;;;;;;5075280;28;20087;-64
2022/01/25 02:30:52;;;;;;;61.50;31.38;;;;;;;;;;5057809;28;20048;-64
2022/01/25 02:33:19;;;;;;;64.93;31.50;;;4.20;99.90;;;;;;5058114;28;20040;-64
2022/01/25 02:35:45;;;;;;;67.28;33.28;;;4.10;99.90;;;;;;5075818;28;20040;-64
2022/01/25 02:38:13;;;;;;;64.25;32.28;;;4.30;99.90;;;;;;5040845;28;20478;-64
2022/01/25 02:40:39;;;;;;;63.97;31.48;;;;;;;;;;5057722;28;20567;-64
2022/01/25 02:43:05;;;;;;;63.92;31.38;;;;;;;;;;5058371;28;20070;-64
2022/01/25 02:45:34;;;;;;;64.70;32.38;;;4.10;99.90;;;;;;5075746;28;20037;-64
2022/01/25 02:50:49;;;;;;;71.38;34.85;;;4.00;99.90;;;;;;5058109;28;20045;-64
2022/01/25 02:53:14;;;;;;;66.28;33.10;;;4.10;99.90;;;;;;5059542;28;20123;-64
2022/01/25 02:55:40;;;;;;;66.03;33.78;;;4.20;99.90;;;;;;5077579;28;20465;-64
2022/01/25 02:58:08;;;;;;;65.32;31.88;;;4.20;99.90;;;;;;5061801;28;20032;-64
2022/01/25 03:00:34;;;;;;;61.67;32.13;;;;;;;;;;5061054;28;20391;-64
2022/01/25 03:02:59;;;;;;;64.53;31.88;;;4.10;99.90;;;;;;5079141;28;20093;-64
2022/01/25 03:05:25;;;;;;;64.25;32.08;;;4.10;99.90;;;;;;5079846;28;20044;-64
2022/01/25 03:07:51;;;;;;;64.50;31.25;;;4.00;99.90;;;;;;5061908;28;20052;-64
2022/01/25 03:10:16;;;;;;;64.13;30.90;;;4.00;99.90;;;;;;5061613;28;20049;-64
2022/01/25 03:12:53;;;;;;;60.20;31.13;;;4.10;99.90;;;;;;5078313;28;20564;-64
2022/01/25 03:17:51;;;;;;;67.70;35.03;;;;;;;;;;5062099;28;20131;-64
2022/01/25 03:20:21;;;;;;;59.63;32.03;;;4.10;99.90;;;;;;5061345;28;20489;-64
2022/01/25 03:25:20;;;;;;;67.57;32.38;;;4.10;99.90;;;;;;5079074;28;20093;-65
2022/01/25 03:27:46;;;;;;;64.72;32.45;;;;;;;;;;5060870;28;20041;-64
2022/01/25 03:30:12;;;;;;;64.20;32.03;;;4.20;99.90;;;;;;5077677;28;20041;-64
2022/01/25 03:32:38;;;;;;;68.78;33.90;;;;;;;;;;5077001;28;20406;-64
2022/01/25 03:35:05;;;;;;;66.10;31.98;;;4.40;99.90;;;;;;5079071;28;20113;-64
2022/01/25 03:37:31;;;;;;;66.60;33.45;;;;;;;;;;5079173;28;20036;-64
2022/01/25 03:39:57;;;;;;;66.97;34.03;;;4.30;99.90;;;;;;5078168;28;20123;-65
2022/01/25 03:42:24;;;;;;;61.63;31.33;;;4.00;99.90;;;;;;5078457;28;20040;-64
2022/01/25 03:44:50;;;;;;;64.97;30.65;;;4.20;99.90;;;;;;5077319;28;20044;-64
2022/01/25 03:47:19;;;;;;;59.85;31.65;;;;;;;;;;5060611;28;20402;-64
2022/01/25 03:49:50;;;;;;;62.42;30.30;;;4.20;99.90;;;;;;5060203;28;20067;-64
2022/01/25 03:52:19;;;;;;;67.05;32.55;;;4.10;99.90;;;;;;5077380;28;20044;-65
2022/01/25 03:54:45;;;;;;;64.30;31.67;;;4.10;99.90;;;;;;5076834;28;20120;-63
2022/01/25 03:57:11;;;;;;;65.07;31.95;;;4.10;99.90;;;;;;5078467;28;20072;-65
2022/01/25 03:59:36;;;;;;;68.72;32.40;;;4.10;99.90;;;;;;5060318;28;20075;-64
2022/01/25 04:02:03;;;;;;;64.57;31.55;;;4.20;99.90;;;;;;5060519;28;20049;-63
2022/01/25 04:04:30;;;;;;;61.22;31.45;;;4.10;99.90;;;;;;5076086;28;20097;-65
2022/01/25 04:06:55;;;;;;;67.00;32.35;;;4.00;99.90;;;;;;5078012;28;20551;-64
2022/01/25 04:09:21;;;;;;;67.03;31.45;;;4.20;99.90;;;;;;5076057;28;20119;-64
2022/01/25 04:11:47;;;;;;;67.78;32.53;;;4.10;99.90;;;;;;5076983;28;20052;-64
2022/01/25 04:14:13;;;;;;;67.93;33.58;;;3.90;99.90;;;;;;5076061;28;20490;-65
2022/01/25 04:16:50;;;;;;;67.82;33.38;;;4.00;99.90;;;;;;5059119;28;20047;-63
2022/01/25 04:19:43;;;;;;;63.90;31.30;;;;;;;;;;5077500;28;20383;-64
2022/01/25 04:24:56;;;;;;;68.22;32.70;;;4.20;99.90;;;;;;5059559;28;20110;-64
2022/01/25 04:27:23;;;;;;;67.00;32.75;;;4.20;99.90;;;;;;5042391;28;20036;-64
2022/01/25 04:29:48;;;;;;;68.22;34.72;;;4.30;99.90;;;;;;5095686;28;20116;-64
2022/01/25 04:32:15;;;;;;;61.05;31.75;;;;;;;;;;5097589;28;20064;-63
2022/01/25 04:34:57;;;;;;;58.05;31.67;;;4.10;99.90;;;;;;5078725;28;20456;-64
2022/01/25 04:51:50;;;;;;;67.80;32.95;;;;;;;;;;5063114;28;20037;-64
2022/01/25 04:57:26;;;;;;;61.88;32.38;;;4.20;99.90;;;;;;5039135;28;20432;-65
2022/01/25 04:59:49;;;;;;;68.03;31.65;;;4.40;99.90;;;;;;5036715;28;20064;-64
2022/01/25 05:02:20;;;;;;;66.40;32.28;;;4.20;99.90;;;;;;5054282;28;20048;-64
2022/01/25 05:04:53;;;;;;;68.13;32.92;;;4.40;99.90;;;;;;5054366;28;20075;-64
2022/01/25 05:10:04;;;;;;;63.47;31.63;;;;;;;;;;5053115;28;20044;-63
2022/01/25 05:12:38;;;;;;;65.55;32.47;;;;;;;;;;5072390;28;20422;-64
2022/01/25 05:16:01;;;;;;;68.78;33.15;;;4.20;99.90;;;;;;5072700;28;20052;-64
2022/01/25 05:18:12;;;;;;;66.15;32.53;;;4.20;99.90;;;;;;5062598;28;20086;-63
2022/01/25 05:23:22;;;;;;;64.85;32.42;;;4.20;99.90;;;;;;5070326;28;20489;-64
2022/01/25 05:25:48;;;;;;;70.18;32.05;;;4.20;99.90;;;;;;5051714;28;20049;-63
2022/01/25 05:28:13;;;;;;;64.68;32.03;;;4.20;99.90;;;;;;5052797;28;20049;-64
2022/01/25 05:30:39;;;;;;;67.07;31.52;;;;;;;;;;5059754;28;20047;-63
2022/01/25 05:33:05;;;;;;;63.28;31.65;;;;;;;;;;5075088;28;20052;-63
2022/01/25 05:35:31;;;;;;;67.07;32.75;;;4.20;99.90;;;;;;5093277;28;20032;-63
2022/01/25 05:37:56;;;;;;;65.78;33.15;;;4.30;99.90;;;;;;5094112;28;20193;-64
2022/01/25 05:40:42;;;;;;;66.75;32.83;;;4.20;99.90;;;;;;5093683;28;20073;-64
2022/01/25 05:48:11;;;;;;;64.22;29.77;;;4.00;99.90;;;;;;5075660;28;20048;-64
2022/01/25 05:50:37;;;;;;;64.80;31.45;;;4.30;99.90;;;;;;5074660;28;20071;-63
2022/01/25 05:53:03;;;;;;;66.20;31.52;;;4.20;99.90;;;;;;5082798;28;20063;-64
2022/01/25 05:55:29;;;;;;;65.75;31.70;;;;;;;;;;5086010;28;20486;-63
2022/01/25 05:57:54;;;;;;;65.55;32.55;;;4.20;99.90;;;;;;5088611;28;20470;-64
2022/01/25 06:00:20;;;;;;;66.75;33.15;;;4.20;99.90;;;;;;5072803;28;20043;-63
2022/01/25 06:02:47;;;;;;;68.22;34.35;;;;;;;;;;5073371;28;20032;-63
2022/01/25 06:05:13;;;;;;;71.93;34.58;;;4.30;99.90;;;;;;5072560;28;20128;-63
2022/01/25 06:07:39;;;;;;;69.93;32.85;;;4.30;99.90;;;;;;5079176;28;20174;-63
2022/01/25 06:10:06;;;;;;;65.43;32.15;;;4.30;99.90;;;;;;5091591;28;20043;-62
2022/01/25 06:12:31;;;;;;;65.70;32.25;;;4.30;99.90;;;;;;5089334;28;20044;-62
2022/01/25 06:14:57;;;;;;;66.45;32.70;;;4.10;99.90;;;;;;5053737;28;20089;-63
2022/01/25 06:17:23;;;;;;;68.03;32.97;;;4.10;99.90;;;;;;5068235;28;20445;-63
2022/01/25 06:19:48;;;;;;;64.03;32.13;;;4.10;99.90;;;;;;5075280;28;20443;-63
2022/01/25 06:22:15;;;;;;;64.03;30.25;;;4.10;99.90;;;;;;5074881;28;20048;-63
2022/01/25 06:24:41;;;;;;;65.75;32.35;;;4.20;99.90;;;;;;5070796;28;20044;-63
2022/01/25 06:27:06;;;;;;;66.47;32.13;;;4.10;99.90;;;;;;5073584;28;20040;-63
2022/01/25 06:29:32;;;;;;;68.25;31.60;;;;;;;;;;5075814;28;20122;-63
2022/01/25 06:31:59;;;;;;;67.78;31.73;;;4.10;99.90;;;;;;5072300;28;20048;-63
2022/01/25 06:34:25;;;;;;;67.38;31.92;;;4.20;99.90;;;;;;5091356;28;20036;-63
2022/01/25 06:36:51;;;;;;;62.10;31.40;;;4.20;99.90;;;;;;5096052;28;20370;-63
2022/01/25 06:39:16;;;;;;;66.03;31.92;;;4.20;99.90;;;;;;5079312;28;20064;-63
2022/01/25 06:41:42;;;;;;;67.43;32.55;;;4.10;99.90;;;;;;5079069;28;20040;-63
2022/01/25 06:44:08;;;;;;;69.47;31.35;;;;;;;;;;5096964;28;20454;-63
2022/01/25 06:46:34;;;;;;;64.30;31.58;;;4.00;99.90;;;;;;5078939;28;20093;-63
2022/01/25 06:48:59;;;;;;;68.00;32.22;;;4.20;99.90;;;;;;5096958;28;20032;-63
2022/01/25 06:51:25;;;;;;;64.18;32.13;;;4.20;99.90;;;;;;5087480;28;20072;-63
2022/01/25 06:53:50;;;;;;;65.90;31.33;;;4.30;99.90;;;;;;5056972;28;20117;-63
2022/01/25 06:56:16;;;;;;;70.57;32.50;;;4.20;99.90;;;;;;5077380;28;20033;-63
2022/01/25 06:58:42;;;;;;;74.97;33.60;;;;;;;;;;5072636;28;20640;-63
2022/01/25 07:01:08;;;;;;;63.15;32.20;;;4.10;99.90;;;;;;5073925;28;20059;-64
2022/01/25 07:03:34;;;;;;;70.38;33.53;;;;;;;;;;5075497;28;20044;-63
2022/01/25 07:06:00;;;;;;;62.67;32.42;;;4.10;99.90;;;;;;5071314;28;20085;-63
2022/01/25 07:08:26;;;;;;;62.33;32.25;;;;;;;;;;5065418;28;20024;-62
2022/01/25 07:10:52;;;;;;;67.07;32.80;;;4.20;99.90;;;;;;5067312;28;20092;-64
2022/01/25 07:13:17;;;;;;;65.03;30.98;;;4.10;99.90;;;;;;5066273;28;20076;-63
2022/01/25 07:15:43;;;;;;;69.63;32.42;;;4.20;99.90;;;;;;5084009;28;20445;-64
2022/01/25 07:18:09;;;;;;;69.93;32.80;;;;;;;;;;5075408;28;20443;-63
2022/01/25 07:20:35;;;;;;;66.35;33.55;;;4.10;99.90;;;;;;5082478;28;20043;-63
2022/01/25 07:23:01;;;;;;;70.05;33.40;;;4.30;99.90;;;;;;5062550;28;20410;-63
2022/01/25 07:25:26;;;;;;;63.97;32.67;;;4.20;99.90;;;;;;5081022;28;20067;-63
2022/01/25 07:27:52;;;;;;;70.18;31.83;;;4.20;99.90;;;;;;5043597;28;20040;-63
2022/01/25 07:30:19;;;;;;;67.28;33.15;;;4.20;99.90;;;;;;5060548;28;20512;-63
2022/01/25 07:32:45;;;;;;;64.07;32.13;;;;;;;;;;5081971;28;20447;-63
2022/01/25 07:35:11;;;;;;;70.13;31.80;;;4.10;99.90;;;;;;5084962;28;20067;-63
2022/01/25 07:37:37;;;;;;;67.38;32.63;;;;;;;;;;5055398;28;20465;-63
2022/01/25 07:40:03;;;;;;;66.00;31.63;;;4.00;99.90;;;;;;5067504;28;20064;-62
2022/01/25 07:42:34;;;;;;;68.03;32.45;;;;;;;;;;5058438;28;20045;-63
2022/01/25 07:45:00;;;;;;;62.95;31.83;;;;;;;;;;5054776;28;20075;-64
2022/01/25 07:47:26;;;;;;;68.15;31.17;;;4.20;99.90;;;;;;5063836;28;20417;-64
2022/01/25 07:49:53;;;;;;;66.35;32.08;;;4.20;99.90;;;;;;5063536;28;20098;-64
2022/01/25 07:52:18;;;;;;;68.20;33.00;;;4.30;99.90;;;;;;5069466;28;20036;-64
2022/01/25 07:54:44;;;;;;;68.35;31.83;;;4.10;99.90;;;;;;5051659;28;20094;-64
2022/01/25 07:57:09;;;;;;;71.47;32.97;;;4.30;99.90;;;;;;5062390;28;20063;-64
2022/01/25 07:59:35;;;;;;;68.88;33.60;;;4.10;99.90;;;;;;5051805;28;20041;-64
2022/01/25 08:02:00;;;;;;;67.07;32.38;;;4.10;99.90;;;;;;5059104;28;20056;-64
2022/01/25 08:04:27;;;;;;;66.00;31.30;;;4.10;99.90;;;;;;5079035;28;20084;-64
2022/01/25 08:06:52;;;;;;;64.72;30.15;;;4.20;99.90;;;;;;5064063;28;20053;-64
2022/01/25 08:09:19;;;;;;;68.13;30.70;;;;;;;;;;5079733;28;20395;-62
2022/01/25 08:11:45;;;;;;;69.47;33.13;;;4.10;99.90;;;;;;5062048;28;20060;-63
2022/01/25 08:14:16;;;;;;;76.03;34.80;;;4.20;99.90;;;;;;5078453;28;20100;-63
2022/01/25 08:16:44;;;;;;;72.18;33.75;;;;;;;;;;5077944;28;20063;-64
2022/01/25 08:19:10;;;;;;;64.22;32.20;;;4.10;99.90;;;;;;5078203;28;20425;-64
2022/01/25 08:21:36;;;;;;;71.95;32.03;;;;;;;;;;5068284;28;20067;-64
2022/01/25 08:24:04;;;;;;;73.57;34.13;;;4.00;99.90;;;;;;5067563;28;20052;-64
2022/01/25 08:26:29;;;;;;;72.25;33.17;;;4.20;99.90;;;;;;5067405;28;20037;-64
2022/01/25 08:28:55;;;;;;;69.65;32.70;;;4.20;99.90;;;;;;5060076;28;20156;-64
2022/01/25 08:31:21;;;;;;;74.40;34.38;;;;;;;;;;5078018;28;20522;-64
2022/01/25 08:33:47;;;;;;;74.57;34.88;;;5.80;99.90;;;;;;5067779;28;20406;-63
2022/01/25 08:36:13;;;;;;;68.57;34.47;;;;;;;;;;5050153;28;20072;-63
2022/01/25 08:38:39;;;;;;;71.47;34.40;;;;;;;;;;5054753;28;20075;-64
2022/01/25 08:41:06;;;;;;;70.72;33.40;;;4.30;99.90;;;;;;5077724;28;20044;-64
2022/01/25 08:43:33;;;;;;;72.68;34.53;;;4.30;99.90;;;;;;5063666;28;20118;-64
2022/01/25 08:45:59;;;;;;;64.10;33.05;;;4.30;99.90;;;;;;5069570;28;20811;-64
2022/01/25 08:48:24;;;;;;;75.80;33.63;;;4.30;99.90;;;;;;5049350;28;20423;-64
2022/01/25 08:50:50;;;;;;;74.30;32.85;;;;;;;;;;5067795;28;20040;-63
2022/01/25 08:53:17;;;;;;;69.63;32.13;;;4.20;99.90;;;;;;5049699;28;20102;-64
2022/01/25 08:55:42;;;;;;;65.20;30.35;;;4.40;99.90;;;;;;5068630;28;20085;-64
2022/01/25 08:58:08;;;;;;;65.03;31.17;;;;;;;;;;5057265;28;20038;-64
2022/01/25 09:00:34;;;;;;;80.82;35.13;;;4.60;99.90;;;;;;5066640;28;20025;-64
2022/01/25 09:03:00;;;;;;;77.20;33.40;;;4.20;99.90;;;;;;5077304;28;20039;-63
2022/01/25 09:05:26;;;;;;;72.82;33.60;;;;;;;;;;5077201;28;20505;-63
2022/01/25 09:07:52;;;;;;;74.13;33.25;;;;;;;;;;5059455;28;20075;-64
2022/01/25 09:10:18;;;;;;;71.15;33.33;;;4.30;99.90;;;;;;5061218;28;20036;-63
2022/01/25 09:12:44;;;;;;;68.60;31.83;;;4.40;99.90;;;;;;5076666;28;20044;-62
2022/01/25 09:15:10;;;;;;;67.75;32.45;;;4.20;99.90;;;;;;5077097;28;20047;-63
2022/01/25 09:17:35;;;;;;;70.97;33.30;;;4.20;99.90;;;;;;5078106;28;20474;-64
2022/01/25 09:20:02;;;;;;;66.40;31.38;;;;;;;;;;5042695;28;20134;-64
2022/01/25 09:22:28;;;;;;;67.78;31.55;;;4.20;99.90;;;;;;5075126;28;20040;-64
2022/01/25 09:24:54;;;;;;;72.10;32.22;;;;;;;;;;5057484;28;20051;-64
2022/01/25 09:27:20;;;;;;;68.70;31.65;;;;;;;;;;5060907;28;20044;-63
2022/01/25 09:29:45;;;;;;;66.75;30.73;;;4.30;99.90;;;;;;5073729;28;20086;-63
2022/01/25 09:32:11;;;;;;;67.35;31.55;;;4.20;99.90;;;;;;5062272;28;20653;-65
2022/01/25 09:34:37;;;;;;;69.03;33.65;;;;;;;;;;5062788;28;20037;-64
2022/01/25 09:37:03;;;;;;;71.97;31.75;;;4.40;99.90;;;;;;5076894;28;20074;-63
2022/01/25 09:39:29;;;;;;;68.38;32.10;;;4.40;99.90;;;;;;5078250;28;20060;-64
2022/01/25 09:41:55;;;;;;;72.28;34.15;;;;;;;;;;5078276;28;20501;-66
2022/01/25 09:44:20;;;;;;;70.15;32.08;;;4.40;99.90;;;;;;5063574;28;20040;-67
2022/01/25 09:46:46;;;;;;;63.88;31.30;;;4.30;99.90;;;;;;5062714;28;20453;-66
2022/01/25 09:49:12;;;;;;;72.50;33.03;;;4.40;99.90;;;;;;5075269;28;20037;-65
2022/01/25 09:51:41;;;;;;;66.70;31.85;;;4.40;99.90;;;;;;5043603;28;20041;-65
2022/01/25 09:54:07;;;;;;;72.47;32.13;;;;;;;;;;5036873;28;20505;-65
2022/01/25 09:56:33;;;;;;;73.13;33.97;;;;;;;;;;5057375;28;20051;-64
2022/01/25 09:58:59;;;;;;;73.65;33.40;;;;;;;;;;5043613;28;20397;-64
2022/01/25 10:01:30;;;;;;;75.03;33.75;;;4.60;99.90;;;;;;5063559;28;20079;-66
2022/01/25 10:03:58;;;;;;;70.45;33.50;;;;;;;;;;5048959;28;20520;-64
2022/01/25 10:06:25;;;;;;;71.50;32.30;;;4.30;99.90;;;;;;5073267;28;20071;-64
2022/01/25 10:08:52;;;;;;;76.45;34.35;;;4.60;99.90;;;;;;5070224;28;20048;-65
2022/01/25 10:11:21;;;;;;;71.65;32.45;;;4.40;99.90;;;;;;5065236;28;20056;-64
2022/01/25 10:13:50;;;;;;;69.45;33.45;;;4.40;99.90;;;;;;5060888;28;20498;-65
2022/01/25 10:16:36;;;;;;;75.05;34.13;;;4.50;99.90;;;;;;5055396;28;20049;-65
2022/01/25 10:19:07;;;;;;;68.28;31.70;;;4.40;99.90;;;;;;5060666;28;20041;-64
2022/01/25 10:21:35;;;;;;;68.00;32.28;;;;;;;;;;5060220;28;20529;-64
2022/01/25 10:24:08;;;;;;;71.22;32.67;;;4.60;99.90;;;;;;5046775;28;20047;-64
2022/01/25 10:26:41;;;;;;;68.47;31.42;;;4.50;99.90;;;;;;5051799;28;20055;-64
2022/01/25 10:29:08;;;;;;;65.97;31.73;;;4.50;99.90;;;;;;5048703;28;20044;-64
2022/01/25 10:31:37;;;;;;;73.53;33.55;;;4.50;99.90;;;;;;5049207;28;20045;-64
2022/01/25 10:34:04;;;;;;;66.45;31.67;;;4.50;99.90;;;;;;5049149;28;20041;-64
2022/01/25 10:36:30;;;;;;;72.03;32.85;;;4.60;99.90;;;;;;5068886;28;20037;-65
2022/01/25 10:38:57;;;;;;;65.30;29.23;;;;;;;;;;5068489;28;20555;-65
2022/01/25 10:41:25;;;;;;;67.90;32.95;;;4.50;99.90;;;;;;5053121;28;20052;-65
2022/01/25 10:43:52;;;;;;;66.13;31.25;;;4.70;99.90;;;;;;5053271;28;20587;-65
2022/01/25 10:46:23;;;;;;;77.95;34.65;;;4.40;99.90;;;;;;5068806;28;20032;-64
2022/01/25 10:48:59;;;;;;;78.05;32.97;;;;;;;;;;5069354;28;20049;-65
2022/01/25 10:51:33;;;;;;;75.38;33.50;;;;;;;;;;5067067;28;20048;-65
2022/01/25 10:54:01;;;;;;;71.15;31.90;;;;;;;;;;5059243;28;20172;-64
2022/01/25 10:56:35;;;;;;;73.70;31.85;;;;;;;;;;5047329;28;20040;-64
2022/01/25 10:59:04;;;;;;;71.10;30.73;;;4.70;99.90;;;;;;5048638;28;20128;-64
2022/01/25 11:01:35;;;;;;;70.90;33.10;;;4.60;99.90;;;;;;5066757;28;20044;-64
2022/01/25 11:04:14;;;;;;;67.10;33.40;;;4.80;99.90;;;;;;5069661;28;20070;-64
2022/01/25 11:06:40;;;;;;;74.45;33.78;;;4.50;99.90;;;;;;5064799;28;20093;-64
2022/01/25 11:09:08;;;;;;;73.75;33.40;;;;;;;;;;5054772;28;20124;-63
2022/01/25 11:11:40;;;;;;;73.00;31.98;;;4.60;99.90;;;;;;5050928;28;20068;-64
2022/01/25 11:16:53;;;;;;;78.20;33.78;;;4.60;99.90;;;;;;5053814;28;20045;-64
2022/01/25 11:19:20;;;;;;;76.03;34.25;;;4.50;99.90;;;;;;5069252;28;20040;-64
2022/01/25 11:21:47;;;;;;;86.18;34.88;;;;;;;;;;5073459;28;20082;-63
2022/01/25 11:24:15;;;;;;;72.30;34.20;;;;;;;;;;5062584;28;20135;-64
2022/01/25 11:26:44;;;;;;;76.40;35.45;;;;;;;;;;5055280;28;20036;-63
2022/01/25 11:29:10;;;;;;;75.28;34.35;;;;;;;;;;5073300;28;20142;-66
2022/01/25 11:31:41;;;;;;;79.45;34.50;;;;;;;;;;5054708;28;20467;-59
2022/01/25 11:34:13;;;;;;;76.00;34.33;;;4.70;99.90;;;;;;5063848;28;20040;-63
2022/01/25 11:37:04;;;;;;;75.82;34.00;;;;;;;;;;5071764;28;20040;-61
2022/01/25 11:39:31;;;;;;;73.97;31.95;;;4.60;99.90;;;;;;5041273;28;20052;-61
2022/01/25 11:42:10;;;;;;;74.30;32.03;;;4.60;99.90;;;;;;5069893;28;20053;-62
2022/01/25 11:44:50;;;;;;;76.22;33.10;;;4.60;99.90;;;;;;5051200;28;20055;-61
2022/01/25 11:47:17;;;;;;;76.32;35.40;;;;;;;;;;5046683;28;20049;-61
2022/01/25 11:50:09;;;;;;;84.60;34.55;;;4.80;99.90;;;;;;5061749;28;20041;-61
2022/01/25 11:52:36;;;;;;;74.60;32.33;;;4.70;99.90;;;;;;5070666;28;20044;-61
2022/01/25 11:55:17;;;;;;;78.32;34.17;;;;;;;;;;5073480;28;20035;-62
2022/01/25 11:57:48;;;;;;;76.70;34.40;;;4.80;99.90;;;;;;5079335;28;20520;-61
2022/01/25 12:00:14;;;;;;;74.07;34.10;;;4.60;99.90;;;;;;5059548;28;20056;-63
2022/01/25 12:02:50;;;;;;;73.53;32.97;;;;;;;;;;5078120;28;20367;-64
2022/01/25 12:05:26;;;;;;;77.03;32.05;;;4.80;99.90;;;;;;5063205;28;20079;-64
2022/01/25 12:08:05;;;;;;;71.90;32.53;;;;;;;;;;5076891;28;20094;-66
2022/01/25 12:10:37;;;;;;;72.22;32.03;;;4.70;99.90;;;;;;5073085;28;20035;-63
2022/01/25 12:13:20;;;;;;;73.53;33.00;;;4.60;99.90;;;;;;5079177;28;20052;-61
2022/01/25 12:15:46;;;;;;;73.45;33.80;;;;;;;;;;5059569;28;20088;-62
2022/01/25 12:18:31;;;;;;;74.45;33.50;;;;;;;;;;5069111;28;20053;-62
2022/01/25 12:20:56;;;;;;;77.00;34.50;;;4.70;99.90;;;;;;5058317;28;20163;-61
2022/01/25 12:23:43;;;;;;;69.93;31.88;;;4.80;99.90;;;;;;5072204;28;20468;-61
2022/01/25 12:26:15;;;;;;;72.10;33.30;;;;;;;;;;5050217;28;20048;-62
2022/01/25 12:28:45;;;;;;;83.68;35.13;;;4.70;99.90;;;;;;5070865;28;20051;-62
2022/01/25 12:31:14;;;;;;;75.78;31.58;;;;;;;;;;5069423;28;20045;-62
2022/01/25 12:33:40;;;;;;;72.93;33.17;;;4.70;99.90;;;;;;5069899;28;20440;-61
2022/01/25 12:36:08;;;;;;;71.65;31.65;;;;;;;;;;5050259;28;20044;-64
2022/01/25 12:38:44;;;;;;;73.57;32.90;;;4.70;99.90;;;;;;5064005;28;20048;-61
2022/01/25 12:41:20;;;;;;;75.90;32.92;;;4.80;99.90;;;;;;5063796;28;20045;-61
2022/01/25 12:43:50;;;;;;;76.15;34.72;;;4.80;99.90;;;;;;5063058;28;20044;-61
2022/01/25 12:46:18;;;;;;;74.35;34.13;;;;;;;;;;5048932;28;20059;-62
2022/01/25 12:49:13;;;;;;;74.40;31.05;;;4.80;99.90;;;;;;5048249;28;20057;-62
2022/01/25 12:51:39;;;;;;;77.07;34.35;;;;;;;;;;5047888;28;20072;-62
2022/01/25 12:54:10;;;;;;;77.97;34.60;;;;;;;;;;5061664;28;20126;-61
2022/01/25 12:56:45;;;;;;;77.53;35.58;;;4.70;99.90;;;;;;5061229;28;20079;-62
2022/01/25 12:59:14;;;;;;;81.03;36.47;;;;;;;;;;5055978;28;20124;-62
2022/01/25 13:01:42;;;;;;;78.22;35.33;;;;;;;;;;5048128;28;20052;-62
2022/01/25 13:04:10;;;;;;;83.38;36.05;;;4.60;99.90;;;;;;5061371;28;20045;-62
2022/01/25 13:06:37;;;;;;;95.03;36.97;;;;;;;;;;5058799;28;20708;-62
2022/01/25 13:09:10;;;;;;;84.55;39.15;;;;;;;;;;5056264;28;20045;-62
2022/01/25 13:16:58;;;;;;;91.00;41.45;;;;;;;;;;5060237;28;20572;-62
2022/01/25 13:19:29;;;;;;;92.10;38.97;;;;;;;;;;5063263;28;20044;-62
2022/01/25 13:21:58;;;;;;;96.25;40.85;;;;;;;;;;5048065;28;20052;-62
2022/01/25 13:24:29;;;;;;;94.97;38.55;;;;;;;;;;5054220;28;20103;-62
2022/01/25 13:26:57;;;;;;;100.07;40.38;;;4.80;99.90;;;;;;5050811;28;20052;-62
2022/01/25 13:32:26;;;;;;;91.85;39.65;;;4.50;99.90;;;;;;5055622;28;20061;-61
2022/01/25 13:35:27;;;;;;;92.18;39.60;;;;;;;;;;5058821;28;20079;-62
2022/01/25 13:38:05;;;;;;;90.68;37.75;;;;;;;;;;5051644;28;20115;-62
2022/01/25 13:41:26;;;;;;;91.10;38.72;;;;;;;;;;5056734;28;20063;-62
2022/01/25 13:45:43;;;;;;;82.20;36.33;;;;;;;;;;5034937;28;20406;-62
2022/01/25 13:46:19;;;;;;;84.03;37.17;;;4.90;99.90;;;;;;5046446;28;20056;-61
2022/01/25 13:48:46;;;;;;;85.93;36.47;;;;;;;;;;5058895;28;20394;-61
2022/01/25 13:51:14;;;;;;;79.63;36.67;;;4.80;99.90;;;;;;5058545;28;20548;-62
2022/01/25 13:53:41;;;;;;;87.07;37.13;;;;;;;;;;5060579;28;20127;-61
2022/01/25 13:56:12;;;;;;;81.32;33.83;;;4.70;99.90;;;;;;5063295;28;20044;-62
2022/01/25 13:58:44;;;;;;;86.63;37.33;;;;;;;;;;5049129;28;20075;-64
2022/01/25 14:01:13;;;;;;;80.63;35.53;;;4.80;99.90;;;;;;5048975;28;20057;-65
2022/01/25 14:03:42;;;;;;;83.22;34.95;;;4.60;99.90;;;;;;5064059;28;20491;-63
2022/01/25 14:06:23;;;;;;;82.35;35.25;;;4.60;99.90;;;;;;5065611;28;20043;-63
2022/01/25 14:08:50;;;;;;;74.30;31.67;;;4.50;99.90;;;;;;5051013;28;20139;-63
2022/01/25 14:11:21;;;;;;;76.28;32.88;;;4.80;99.90;;;;;;5053364;28;20084;-64
2022/01/25 14:24:35;;;;;;;75.47;31.98;;;4.70;99.90;;;;;;5068091;28;20077;-64
2022/01/25 14:27:32;;;;;;;79.90;33.33;;;4.60;99.90;;;;;;5062648;28;20490;-65
2022/01/25 14:29:58;;;;;;;78.63;33.35;;;4.70;99.90;;;;;;5062275;28;20407;-62
2022/01/25 14:32:32;;;;;;;74.53;34.22;;;4.80;99.90;;;;;;5068586;28;20044;-64
2022/01/25 14:35:04;;;;;;;79.65;36.33;;;4.60;99.90;;;;;;5074189;28;20060;-63
2022/01/25 14:37:30;;;;;;;77.80;33.13;;;;;;;;;;5047064;28;20036;-63
2022/01/25 14:40:09;;;;;;;79.45;34.13;;;4.90;99.90;;;;;;5056993;28;20039;-64
2022/01/25 14:42:36;;;;;;;76.53;34.38;;;;;;;;;;5062547;28;20046;-62
2022/01/25 14:45:05;;;;;;;79.68;34.70;;;4.70;99.90;;;;;;5068785;28;20048;-61
2022/01/25 14:47:39;;;;;;;81.47;35.00;;;;;;;;;;5063650;28;20503;-64
2022/01/25 14:50:15;;;;;;;78.20;33.83;;;;;;;;;;5059561;28;20104;-63
2022/01/25 14:52:41;;;;;;;76.07;34.38;;;4.80;99.90;;;;;;5057368;28;20049;-65
2022/01/25 14:55:20;;;;;;;81.47;31.90;;;;;;;;;;5058764;28;20036;-65
2022/01/25 14:58:04;;;;;;;72.47;30.88;;;4.70;99.90;;;;;;5052899;28;20063;-65
2022/01/25 15:00:30;;;;;;;78.03;32.42;;;;;;;;;;5075035;28;20547;-64
2022/01/25 15:02:56;;;;;;;73.65;32.22;;;;;;;;;;5065265;28;20109;-64
2022/01/25 15:05:22;;;;;;;76.50;32.92;;;;;;;;;;5077830;28;20062;-63
2022/01/25 15:07:48;;;;;;;74.15;30.15;;;4.80;99.90;;;;;;5062029;28;20075;-62
2022/01/25 15:10:19;;;;;;;75.85;30.98;;;4.70;99.90;;;;;;5060488;28;20040;-63
2022/01/25 15:12:48;;;;;;;72.68;30.95;;;;;;;;;;5051985;28;20064;-64
2022/01/25 15:15:26;;;;;;;67.07;31.25;;;;;;;;;;5067088;28;20044;-62
2022/01/25 15:17:53;;;;;;;83.05;33.40;;;;;;;;;;5057017;28;20096;-63